Terminal Aerodrome Forecast
Issued by NWS

Home | Current Version | Previous Version | Text Only | Print | Product List | Glossary On
Versions: 1 2 3 4 5 6 7 8 9 10 11 12 13 14 15 16 17 18 19 20 21 22 23 24 25 26 27 28 29 30
000
FTUS44 KFWD 191100
TAFGKY
TAF
KGKY 191139Z 1912/2012 13005KT P6SM SCT006 BKN015
      TEMPO 1912/1914 3SM BR BKN006
     FM191700 12008KT P6SM SCT040 BKN250
     FM201130 15006KT P6SM BKN020=

USA.gov is the U.S. government's official web portal to all federal, state and local government web resources and services.